createdAt,value
2019-01-18T00:01:51.977Z,1.51
2019-01-18T00:04:20.804Z,1.50
2019-01-18T00:06:49.605Z,1.53
2019-01-18T00:09:18.493Z,1.57
2019-01-18T00:11:47.839Z,1.53
2019-01-18T00:14:16.627Z,1.57
2019-01-18T00:16:45.569Z,1.49
2019-01-18T00:19:14.382Z,1.52
2019-01-18T00:21:43.324Z,1.57
2019-01-18T00:24:12.145Z,1.60
2019-01-18T00:26:40.957Z,1.64
2019-01-18T00:29:09.771Z,1.59
2019-01-18T00:31:38.557Z,1.60
2019-01-18T00:34:07.629Z,1.53
2019-01-18T00:36:36.477Z,1.55
2019-01-18T00:39:07.947Z,1.55
2019-01-18T00:41:36.899Z,1.41
2019-01-18T00:44:06.060Z,1.43
2019-01-18T00:46:34.866Z,1.50
2019-01-18T00:49:03.820Z,1.52
2019-01-18T00:51:32.609Z,1.56
2019-01-18T00:54:01.492Z,1.49
2019-01-18T00:56:30.268Z,1.49
2019-01-18T00:58:59.224Z,1.45
2019-01-18T01:01:28.146Z,1.54
2019-01-18T01:03:57.118Z,1.50
2019-01-18T01:06:25.992Z,1.52
2019-01-18T01:08:54.954Z,1.50
2019-01-18T01:11:24.189Z,1.44
2019-01-18T01:13:53.146Z,1.50
2019-01-18T01:16:22.006Z,1.51
2019-01-18T01:18:50.879Z,1.47
2019-01-18T01:21:19.854Z,1.43
2019-01-18T01:23:48.665Z,1.47
2019-01-18T01:26:17.536Z,1.45
2019-01-18T01:28:46.340Z,1.43
2019-01-18T01:31:15.296Z,1.36
2019-01-18T01:33:44.257Z,1.39
2019-01-18T01:36:13.204Z,1.42
2019-01-18T01:38:42.088Z,1.42
2019-01-18T01:41:10.981Z,1.48
2019-01-18T01:43:39.983Z,1.48
2019-01-18T01:46:08.855Z,1.50
2019-01-18T01:48:37.828Z,1.44
2019-01-18T01:51:06.773Z,1.33
2019-01-18T01:53:35.683Z,1.38
2019-01-18T01:56:04.734Z,1.44
2019-01-18T01:58:33.607Z,1.44
2019-01-18T02:01:02.462Z,1.52
2019-01-18T02:03:31.423Z,1.53
2019-01-18T02:06:00.315Z,1.47
2019-01-18T02:08:29.190Z,1.40
2019-01-18T02:10:58.092Z,1.44
2019-01-18T02:13:26.896Z,1.41
2019-01-18T02:15:55.947Z,1.44
2019-01-18T02:18:24.814Z,1.37
2019-01-18T02:20:53.765Z,1.38
2019-01-18T02:23:22.757Z,1.44
2019-01-18T02:25:51.763Z,1.47
2019-01-18T02:28:20.759Z,1.48
2019-01-18T02:30:49.735Z,1.39
2019-01-18T02:33:18.818Z,1.43
2019-01-18T02:35:47.712Z,1.33
2019-01-18T02:38:16.635Z,1.27
2019-01-18T02:40:45.734Z,1.28
2019-01-18T02:43:14.539Z,1.34
2019-01-18T02:45:43.425Z,1.31
2019-01-18T02:48:12.385Z,1.23
2019-01-18T02:50:41.206Z,1.20
2019-01-18T02:53:09.995Z,1.26
2019-01-18T02:55:38.958Z,1.30
2019-01-18T02:58:07.762Z,1.24
2019-01-18T03:00:36.716Z,1.12
2019-01-18T03:03:05.627Z,1.16
2019-01-18T03:05:34.771Z,1.09
2019-01-18T03:08:03.847Z,1.09
2019-01-18T03:10:33.124Z,1.06
2019-01-18T03:13:02.072Z,1.15
2019-01-18T03:15:30.973Z,1.09
2019-01-18T03:17:59.764Z,1.11
2019-01-18T03:20:28.716Z,1.13
2019-01-18T03:22:57.598Z,1.10
2019-01-18T03:25:28.679Z,1.10
2019-01-18T03:27:57.725Z,1.12
2019-01-18T03:30:26.685Z,1.11
2019-01-18T03:32:55.652Z,1.09
2019-01-18T03:35:24.998Z,1.12
2019-01-18T03:37:54.108Z,1.11
2019-01-18T03:40:23.106Z,1.13
2019-01-18T03:42:52.468Z,1.22
2019-01-18T03:45:21.417Z,1.10
2019-01-18T03:47:50.358Z,1.08
2019-01-18T03:50:21.691Z,1.06
2019-01-18T03:52:50.642Z,1.10
2019-01-18T03:55:19.790Z,1.08
2019-01-18T03:57:48.661Z,0.98
2019-01-18T04:00:26.426Z,1.07
2019-01-18T04:02:53.340Z,1.09
2019-01-18T04:05:22.323Z,1.09
2019-01-18T04:07:51.261Z,1.03
2019-01-18T04:10:20.575Z,1.08
2019-01-18T04:12:49.528Z,1.07
2019-01-18T04:15:19.642Z,1.01
2019-01-18T04:17:48.575Z,1.03
2019-01-18T04:20:18.175Z,1.06
2019-01-18T04:22:47.052Z,0.93
2019-01-18T04:25:20.008Z,0.95
2019-01-18T04:27:48.957Z,1.06
2019-01-18T04:30:20.031Z,0.94
2019-01-18T04:32:49.104Z,1.00
2019-01-18T04:35:18.121Z,1.00
2019-01-18T04:37:47.065Z,1.09
2019-01-18T04:40:18.513Z,1.06
2019-01-18T04:42:47.465Z,1.04
2019-01-18T04:45:16.406Z,1.02
2019-01-18T04:47:45.350Z,1.03
2019-01-18T04:50:16.891Z,1.10
2019-01-18T04:52:46.022Z,1.08
2019-01-18T04:55:14.997Z,1.09
2019-01-18T04:57:43.937Z,1.06
2019-01-18T05:00:21.195Z,1.03
2019-01-18T05:02:50.251Z,1.07
2019-01-18T05:05:19.506Z,1.18
2019-01-18T05:07:48.921Z,1.10
2019-01-18T05:10:18.792Z,1.09
2019-01-18T05:12:47.640Z,1.12
2019-01-18T05:15:19.130Z,1.04
2019-01-18T05:17:48.253Z,1.09
2019-01-18T05:20:17.633Z,1.13
2019-01-18T05:22:46.562Z,1.10
2019-01-18T05:25:15.782Z,1.02
2019-01-18T05:27:44.724Z,1.05
2019-01-18T05:30:16.614Z,1.06
2019-01-18T05:32:45.568Z,1.10
2019-01-18T05:35:14.545Z,1.08
2019-01-18T05:37:43.476Z,1.10
2019-01-18T05:40:14.275Z,1.00
2019-01-18T05:42:43.327Z,1.05
2019-01-18T05:45:14.988Z,1.10
2019-01-18T05:47:43.926Z,1.11
2019-01-18T05:50:15.421Z,1.06
2019-01-18T05:52:44.357Z,0.96
2019-01-18T05:55:13.344Z,0.96
2019-01-18T05:57:42.277Z,0.87
2019-01-18T06:00:17.019Z,0.94
2019-01-18T06:02:45.977Z,0.88
2019-01-18T06:05:16.245Z,0.85
2019-01-18T06:07:45.244Z,0.93
2019-01-18T06:10:14.176Z,0.89
2019-01-18T06:12:43.058Z,0.90
2019-01-18T06:15:12.125Z,0.88
2019-01-18T06:17:41.191Z,0.83
2019-01-18T06:20:43.275Z,0.79
2019-01-18T06:23:12.135Z,0.83
2019-01-18T06:25:40.939Z,0.76
2019-01-18T06:28:09.789Z,0.72
2019-01-18T06:30:38.656Z,0.66
2019-01-18T06:33:07.463Z,0.59
2019-01-18T06:35:36.384Z,0.63
2019-01-18T06:38:05.449Z,0.54
2019-01-18T06:40:34.393Z,0.46
2019-01-18T06:43:03.182Z,0.42
2019-01-18T06:45:32.855Z,0.44
2019-01-18T06:48:01.809Z,0.39
2019-01-18T06:50:31.031Z,0.43
2019-01-18T06:52:59.818Z,0.35
2019-01-18T06:55:28.672Z,0.26
2019-01-18T06:57:57.630Z,0.33
2019-01-18T07:00:31.792Z,0.26
2019-01-18T07:03:01.677Z,0.21
2019-01-18T07:05:30.563Z,0.18
2019-01-18T07:07:59.551Z,0.05
2019-01-18T07:10:28.496Z,0.05
2019-01-18T07:12:57.303Z,0.03
2019-01-18T07:15:26.237Z,-0.11
2019-01-18T07:17:55.103Z,-0.10
2019-01-18T07:20:24.027Z,-0.10
2019-01-18T07:22:52.849Z,-0.06
2019-01-18T07:25:24.017Z,-0.02
2019-01-18T07:27:52.883Z,-0.24
2019-01-18T07:30:30.818Z,-0.15
2019-01-18T07:32:59.754Z,-0.15
2019-01-18T07:35:28.703Z,-0.04
2019-01-18T07:37:57.652Z,-0.22
2019-01-18T07:40:26.575Z,-0.12
2019-01-18T07:42:55.387Z,-0.09
2019-01-18T07:45:26.086Z,-0.09
2019-01-18T07:47:54.954Z,0.12
2019-01-18T07:50:23.910Z,0.11
2019-01-18T07:52:52.964Z,-0.02
2019-01-18T07:55:21.898Z,-0.13
2019-01-18T07:57:50.771Z,-0.09
2019-01-18T08:00:21.860Z,0.08
2019-01-18T08:02:50.913Z,0.04
2019-01-18T08:05:20.422Z,0.12
2019-01-18T08:07:49.352Z,0.41
2019-01-18T08:10:19.334Z,0.54
2019-01-18T08:12:48.213Z,0.47
2019-01-18T08:15:21.640Z,0.45
2019-01-18T08:17:50.931Z,0.48
2019-01-18T08:20:21.976Z,0.47
2019-01-18T08:22:50.985Z,0.56
2019-01-18T08:25:19.927Z,0.59
2019-01-18T08:27:48.966Z,0.64
2019-01-18T08:30:20.060Z,0.77
2019-01-18T08:32:49.129Z,0.95
2019-01-18T08:35:19.190Z,0.93
2019-01-18T08:37:48.165Z,0.82
2019-01-18T08:40:19.664Z,0.72
2019-01-18T08:42:48.626Z,0.82
2019-01-18T08:45:20.843Z,0.88
2019-01-18T08:47:49.837Z,0.98
2019-01-18T08:50:18.746Z,1.00
2019-01-18T08:52:47.649Z,1.08
2019-01-18T08:55:16.511Z,0.94
2019-01-18T08:57:45.367Z,0.98
2019-01-18T09:00:16.917Z,1.00
2019-01-18T09:02:45.779Z,0.96
2019-01-18T09:05:16.980Z,0.99
2019-01-18T09:07:45.765Z,0.92
2019-01-18T09:10:16.015Z,0.93
2019-01-18T09:12:44.882Z,1.21
2019-01-18T09:15:14.283Z,1.29
2019-01-18T09:17:43.247Z,1.38
2019-01-18T09:20:20.128Z,1.52
2019-01-18T09:22:49.046Z,1.63
2019-01-18T09:25:18.019Z,1.81
2019-01-18T09:27:46.942Z,1.82
2019-01-18T09:30:18.302Z,1.90
2019-01-18T09:32:47.350Z,1.83
2019-01-18T09:35:17.327Z,1.72
2019-01-18T09:37:46.875Z,1.96
2019-01-18T09:40:24.259Z,1.97
2019-01-18T09:42:53.121Z,1.84
2019-01-18T09:45:21.973Z,1.92
2019-01-18T09:47:50.817Z,1.96
2019-01-18T09:50:21.908Z,1.97
2019-01-18T09:52:50.870Z,2.07
2019-01-18T09:55:19.933Z,1.96
2019-01-18T09:57:48.864Z,2.10
2019-01-18T10:00:26.332Z,2.16
2019-01-18T10:02:55.656Z,2.23
2019-01-18T10:05:24.704Z,2.33
2019-01-18T10:07:53.624Z,2.32
2019-01-18T10:10:22.823Z,2.46
2019-01-18T10:12:51.941Z,2.47
2019-01-18T10:15:23.336Z,2.61
2019-01-18T10:17:52.193Z,2.68
2019-01-18T10:20:21.051Z,2.91
2019-01-18T10:22:50.205Z,3.00
2019-01-18T10:25:19.466Z,3.10
2019-01-18T10:27:48.382Z,2.88
2019-01-18T10:30:19.444Z,2.95
2019-01-18T10:32:48.472Z,2.98
2019-01-18T10:35:18.376Z,2.90
2019-01-18T10:37:47.387Z,2.95
2019-01-18T10:40:16.871Z,2.99
2019-01-18T10:42:46.221Z,3.17
2019-01-18T10:45:15.640Z,3.07
2019-01-18T10:47:44.826Z,3.18
2019-01-18T10:50:15.947Z,2.59
2019-01-18T10:52:44.879Z,2.72
2019-01-18T10:55:13.728Z,2.93
2019-01-18T10:57:42.596Z,3.05
2019-01-18T11:00:18.182Z,3.30
2019-01-18T11:02:46.975Z,3.32
2019-01-18T11:05:16.820Z,3.24
2019-01-18T11:07:45.678Z,2.81
2019-01-18T11:10:14.615Z,2.93
2019-01-18T11:12:43.627Z,3.14
2019-01-18T11:15:13.957Z,3.30
2019-01-18T11:17:42.917Z,3.02
2019-01-18T11:20:17.421Z,2.93
2019-01-18T11:22:46.200Z,2.91
2019-01-18T11:25:15.151Z,3.12
2019-01-18T11:27:44.115Z,3.21
2019-01-18T11:30:14.916Z,3.44
2019-01-18T11:32:43.866Z,3.40
2019-01-18T11:35:12.821Z,3.29
2019-01-18T11:37:42.846Z,3.40
2019-01-18T11:40:15.697Z,3.47
2019-01-18T11:42:44.656Z,3.44
2019-01-18T11:45:14.200Z,3.63
2019-01-18T11:47:43.066Z,3.35
2019-01-18T11:50:18.275Z,3.43
2019-01-18T11:52:47.141Z,3.79
2019-01-18T11:55:16.031Z,4.18
2019-01-18T11:57:44.960Z,4.23
2019-01-18T12:00:16.552Z,4.18
2019-01-18T12:02:45.511Z,4.29
2019-01-18T12:05:14.424Z,4.24
2019-01-18T12:07:43.516Z,4.29
2019-01-18T12:10:16.400Z,4.15
2019-01-18T12:12:45.356Z,4.10
2019-01-18T12:15:14.368Z,3.77
2019-01-18T12:17:43.692Z,3.73
2019-01-18T12:20:15.340Z,3.47
2019-01-18T12:22:44.373Z,3.53
2019-01-18T12:25:13.902Z,3.52
2019-01-18T12:27:42.763Z,3.30
2019-01-18T12:30:15.109Z,3.26
2019-01-18T12:32:44.001Z,3.47
2019-01-18T12:35:13.228Z,3.19
2019-01-18T12:37:42.172Z,3.32
2019-01-18T12:40:11.217Z,3.57
2019-01-18T12:42:40.147Z,3.82
2019-01-18T12:45:12.792Z,3.70
2019-01-18T12:47:41.581Z,3.78
2019-01-18T12:50:15.710Z,3.48
2019-01-18T12:52:44.562Z,3.45
2019-01-18T12:55:13.487Z,3.42
2019-01-18T12:57:42.348Z,3.60
2019-01-18T13:00:14.315Z,3.28
2019-01-18T13:02:43.370Z,3.13
2019-01-18T13:05:15.269Z,3.10
2019-01-18T13:07:45.421Z,3.10
2019-01-18T13:10:15.115Z,3.07
2019-01-18T13:12:43.982Z,3.17
2019-01-18T13:15:16.915Z,2.84
2019-01-18T13:17:45.708Z,2.79
2019-01-18T13:20:15.478Z,2.78
2019-01-18T13:22:44.399Z,2.74
2019-01-18T13:25:13.870Z,2.59
2019-01-18T13:27:42.934Z,2.50
2019-01-18T13:30:14.234Z,2.51
2019-01-18T13:32:43.171Z,2.87
2019-01-18T13:35:12.090Z,2.99
2019-01-18T13:37:41.122Z,2.88
2019-01-18T13:40:13.559Z,2.75
2019-01-18T13:42:42.489Z,2.79
2019-01-18T13:45:11.920Z,2.75
2019-01-18T13:47:40.975Z,3.03
2019-01-18T13:50:14.920Z,3.15
2019-01-18T13:52:43.861Z,3.05
2019-01-18T13:55:15.892Z,2.76
2019-01-18T13:57:44.832Z,2.57
2019-01-18T14:00:14.390Z,2.67
2019-01-18T14:02:48.412Z,2.77
2019-01-18T14:05:14.321Z,2.96
2019-01-18T14:07:43.253Z,3.04
2019-01-18T14:10:17.917Z,3.37
2019-01-18T14:12:46.900Z,3.32
2019-01-18T14:15:18.992Z,2.92
2019-01-18T14:17:47.838Z,2.89
2019-01-18T14:20:20.938Z,2.94
2019-01-18T14:22:48.282Z,2.95
2019-01-18T14:25:17.376Z,3.19
2019-01-18T14:27:47.344Z,3.35
2019-01-18T14:30:26.201Z,3.60
2019-01-18T14:32:56.021Z,3.39
2019-01-18T14:35:25.089Z,3.23
2019-01-18T14:37:54.208Z,3.23
2019-01-18T14:40:23.186Z,3.16
2019-01-18T14:42:52.358Z,3.41
2019-01-18T14:45:33.146Z,3.35
2019-01-18T14:48:01.992Z,3.19
2019-01-18T14:50:30.840Z,3.42
2019-01-18T14:52:59.712Z,3.31
2019-01-18T14:55:28.517Z,3.56
2019-01-18T14:57:57.484Z,3.47
2019-01-18T15:00:30.229Z,3.45
2019-01-18T15:03:02.469Z,3.15
2019-01-18T15:05:29.910Z,3.11
2019-01-18T15:07:58.808Z,3.07
2019-01-18T15:10:27.653Z,3.12
2019-01-18T15:12:59.669Z,2.94
2019-01-18T15:15:28.522Z,2.77
2019-01-18T15:17:57.481Z,2.57
2019-01-18T15:20:28.331Z,2.51
2019-01-18T15:22:57.365Z,2.44
2019-01-18T15:25:26.327Z,2.51
2019-01-18T15:27:55.255Z,2.27
2019-01-18T15:30:26.615Z,2.20
2019-01-18T15:32:55.465Z,2.22
2019-01-18T15:35:29.644Z,2.04
2019-01-18T15:37:58.509Z,1.90
2019-01-18T15:40:28.585Z,1.84
2019-01-18T15:42:59.644Z,1.79
2019-01-18T15:45:28.425Z,1.71
2019-01-18T15:47:57.403Z,1.67
2019-01-18T15:50:28.716Z,1.59
2019-01-18T15:52:57.670Z,1.46
2019-01-18T15:55:26.713Z,1.42
2019-01-18T15:57:55.664Z,1.42
2019-01-18T16:00:44.168Z,1.36
2019-01-18T16:03:16.178Z,1.25
2019-01-18T16:05:43.613Z,1.25
2019-01-18T16:08:13.229Z,1.22
2019-01-18T16:10:42.077Z,1.18
2019-01-18T16:13:12.568Z,1.07
2019-01-18T16:16:07.287Z,1.08
2019-01-18T16:18:36.138Z,0.96
2019-01-18T16:21:05.021Z,0.91
2019-01-18T16:23:33.899Z,0.96
2019-01-18T16:26:02.769Z,0.96
2019-01-18T16:28:31.624Z,0.91
2019-01-18T16:31:00.489Z,0.81
2019-01-18T16:33:29.367Z,0.76
2019-01-18T16:35:58.248Z,0.79
2019-01-18T16:38:27.216Z,0.88
2019-01-18T16:40:56.093Z,0.84
2019-01-18T16:43:28.184Z,0.76
2019-01-18T16:45:57.120Z,0.78
2019-01-18T16:48:25.970Z,0.82
2019-01-18T16:50:54.783Z,0.90
2019-01-18T16:53:23.723Z,0.87
2019-01-18T16:55:52.564Z,0.83
2019-01-18T16:58:21.539Z,0.60
2019-01-18T17:00:52.466Z,0.63
2019-01-18T17:03:21.876Z,0.62
2019-01-18T17:05:50.897Z,0.60
2019-01-18T17:08:19.810Z,0.55
2019-01-18T17:10:48.820Z,0.44
2019-01-18T17:13:17.906Z,0.39
2019-01-18T17:15:46.697Z,0.38
2019-01-18T17:18:15.622Z,0.31
2019-01-18T17:20:44.999Z,0.29
2019-01-18T17:23:13.915Z,0.23
2019-01-18T17:25:42.858Z,0.17
2019-01-18T17:28:11.706Z,0.09
2019-01-18T17:30:40.562Z,0.04
2019-01-18T17:33:09.507Z,0.05
2019-01-18T17:36:05.124Z,0.07
2019-01-18T17:38:55.778Z,0.32
2019-01-18T17:41:49.361Z,0.43
2019-01-18T17:44:55.255Z,0.55
2019-01-18T17:48:03.982Z,0.41
2019-01-18T17:51:12.025Z,0.22
2019-01-18T17:53:57.436Z,0.12
2019-01-18T17:56:49.651Z,0.10
2019-01-18T17:59:55.436Z,0.13
2019-01-18T18:02:46.959Z,0.13
2019-01-18T18:05:40.855Z,0.20
2019-01-18T18:08:49.761Z,0.16
2019-01-18T18:11:41.758Z,0.06
2019-01-18T18:14:53.406Z,0.03
2019-01-18T18:17:43.757Z,-0.03
2019-01-18T18:20:41.137Z,-0.12
2019-01-18T18:23:48.344Z,-0.16
2019-01-18T18:27:11.052Z,-0.30
2019-01-18T18:30:23.201Z,-0.45
2019-01-18T18:33:25.236Z,-0.53
2019-01-18T18:36:17.308Z,-0.56
2019-01-18T18:39:09.430Z,-0.60
2019-01-18T18:41:54.326Z,-0.63
2019-01-18T18:45:07.808Z,-0.62
2019-01-18T18:48:13.617Z,-0.67
2019-01-18T18:51:27.997Z,-0.59
2019-01-18T18:54:41.010Z,-0.64
2019-01-18T18:57:25.378Z,-0.48
2019-01-18T19:00:31.021Z,-0.46
2019-01-18T19:03:33.734Z,-0.62
2019-01-18T19:06:31.253Z,-0.68
2019-01-18T19:09:37.617Z,-0.57
2019-01-18T19:12:53.823Z,-0.42
2019-01-18T19:15:49.744Z,-0.74
2019-01-18T19:18:47.331Z,-0.85
2019-01-18T19:21:46.860Z,-0.86
2019-01-18T19:24:59.712Z,-0.91
2019-01-18T19:28:10.865Z,-0.92
2019-01-18T19:31:03.347Z,-0.98
2019-01-18T19:34:04.403Z,-1.00
2019-01-18T19:37:14.165Z,-1.00
2019-01-18T19:39:54.027Z,-1.00
2019-01-18T19:42:58.689Z,-1.09
2019-01-18T19:46:16.884Z,-1.12
2019-01-18T19:49:22.648Z,-1.15
2019-01-18T19:52:08.226Z,-1.13
2019-01-18T19:54:58.807Z,-1.16
2019-01-18T19:58:06.634Z,-1.22
2019-01-18T20:01:17.637Z,-1.29
2019-01-18T20:04:22.606Z,-1.32
2019-01-18T20:07:01.412Z,-1.37
2019-01-18T20:10:08.393Z,-1.28
2019-01-18T20:13:28.014Z,-1.24
2019-01-18T20:16:08.983Z,-1.20
2019-01-18T20:19:18.488Z,-1.19
2019-01-18T20:22:19.040Z,-1.31
2019-01-18T20:25:29.456Z,-1.41
2019-01-18T20:28:42.614Z,-1.38
2019-01-18T20:31:35.692Z,-1.25
2019-01-18T20:34:34.459Z,-1.26
2019-01-18T20:38:05.655Z,-1.02
2019-01-18T20:40:51.647Z,-0.91
2019-01-18T20:43:50.429Z,-0.87
2019-01-18T20:47:04.610Z,-1.09
2019-01-18T20:50:04.343Z,-1.09
2019-01-18T20:53:13.232Z,-1.17
2019-01-18T20:56:40.602Z,-1.21
2019-01-18T20:59:44.816Z,-1.25
2019-01-18T21:02:32.769Z,-1.51
2019-01-18T21:05:22.041Z,-1.56
2019-01-18T21:08:27.020Z,-1.50
2019-01-18T21:11:06.374Z,-1.57
2019-01-18T21:14:02.810Z,-1.57
2019-01-18T21:17:06.733Z,-1.57
2019-01-18T21:19:56.125Z,-1.57
2019-01-18T21:23:04.746Z,-1.57
2019-01-18T21:26:08.280Z,-1.57
2019-01-18T21:29:04.918Z,-1.61
2019-01-18T21:31:58.021Z,-1.66
2019-01-18T21:34:39.237Z,-1.70
2019-01-18T21:38:03.983Z,-1.70
2019-01-18T21:40:59.174Z,-1.81
2019-01-18T21:44:20.951Z,-1.85
2019-01-18T21:47:26.248Z,-1.79
2019-01-18T21:50:26.288Z,-1.53
2019-01-18T21:53:27.331Z,-1.55
2019-01-18T21:56:08.926Z,-1.47
2019-01-18T22:03:02.474Z,-1.90
2019-01-18T22:06:24.808Z,-1.96
2019-01-18T22:09:14.490Z,-2.02
2019-01-18T22:12:23.059Z,-1.90
2019-01-18T22:15:20.698Z,-1.90
2019-01-18T22:18:52.181Z,-1.80
2019-01-18T22:21:50.726Z,-1.78
2019-01-18T22:25:12.930Z,-1.80
2019-01-18T22:27:55.396Z,-1.83
2019-01-18T22:30:47.238Z,-1.73
2019-01-18T22:34:05.333Z,-1.73
2019-01-18T22:37:15.681Z,-1.79
2019-01-18T22:40:05.762Z,-1.75
2019-01-18T22:42:58.715Z,-1.70
2019-01-18T22:45:46.472Z,-1.77
2019-01-18T22:48:42.012Z,-1.97
2019-01-18T22:52:10.193Z,-1.96
2019-01-18T22:55:35.781Z,-1.93
2019-01-18T22:58:33.202Z,-1.94
2019-01-18T23:01:55.057Z,-1.89
2019-01-18T23:04:55.297Z,-1.89
2019-01-18T23:07:50.637Z,-1.87
2019-01-18T23:10:55.560Z,-1.89
2019-01-18T23:14:07.669Z,-1.94
2019-01-18T23:17:17.742Z,-1.93
2019-01-18T23:20:39.930Z,-1.93
2019-01-18T23:23:33.494Z,-1.94
2019-01-18T23:26:23.710Z,-1.87
2019-01-18T23:29:16.894Z,-1.83
2019-01-18T23:32:13.436Z,-1.76
2019-01-18T23:35:05.071Z,-1.74
2019-01-18T23:37:45.867Z,-1.71
2019-01-18T23:40:39.849Z,-1.69
2019-01-18T23:43:38.736Z,-1.78
2019-01-18T23:46:59.452Z,-1.81
2019-01-18T23:49:54.504Z,-1.95
2019-01-18T23:52:47.359Z,-2.03
2019-01-18T23:55:59.608Z,-2.02
2019-01-18T23:58:56.009Z,-2.03
